sensor_id;sensor_type;location;lat;lon;timestamp;P1;durP1;ratioP1;P2;durP2;ratioP2
23470;SDS011;11908;50.806;4.424;2023-07-29T00:01:35;2.95;;;1.30;;
23470;SDS011;11908;50.806;4.424;2023-07-29T00:04:01;1.60;;;0.98;;
23470;SDS011;11908;50.806;4.424;2023-07-29T00:06:27;2.25;;;1.23;;
23470;SDS011;11908;50.806;4.424;2023-07-29T00:08:53;4.22;;;1.20;;
23470;SDS011;11908;50.806;4.424;2023-07-29T00:11:19;4.90;;;1.27;;
23470;SDS011;11908;50.806;4.424;2023-07-29T00:13:44;4.25;;;1.30;;
23470;SDS011;11908;50.806;4.424;2023-07-29T00:16:12;3.40;;;1.20;;
23470;SDS011;11908;50.806;4.424;2023-07-29T00:18:37;6.03;;;1.35;;
23470;SDS011;11908;50.806;4.424;2023-07-29T00:21:03;1.67;;;1.00;;
23470;SDS011;11908;50.806;4.424;2023-07-29T00:23:29;2.00;;;1.33;;
23470;SDS011;11908;50.806;4.424;2023-07-29T00:25:54;5.72;;;1.30;;
23470;SDS011;11908;50.806;4.424;2023-07-29T00:28:20;2.30;;;1.13;;
23470;SDS011;11908;50.806;4.424;2023-07-29T00:30:46;2.80;;;1.35;;
23470;SDS011;11908;50.806;4.424;2023-07-29T00:33:11;5.20;;;1.20;;
23470;SDS011;11908;50.806;4.424;2023-07-29T00:35:37;4.95;;;1.30;;
23470;SDS011;11908;50.806;4.424;2023-07-29T00:38:03;3.05;;;1.20;;
23470;SDS011;11908;50.806;4.424;2023-07-29T00:40:29;3.03;;;1.27;;
23470;SDS011;11908;50.806;4.424;2023-07-29T00:42:55;3.80;;;1.23;;
23470;SDS011;11908;50.806;4.424;2023-07-29T00:45:21;3.13;;;1.35;;
23470;SDS011;11908;50.806;4.424;2023-07-29T00:47:49;2.70;;;1.10;;
23470;SDS011;11908;50.806;4.424;2023-07-29T00:50:15;4.85;;;1.25;;
23470;SDS011;11908;50.806;4.424;2023-07-29T00:52:41;3.95;;;1.30;;
23470;SDS011;11908;50.806;4.424;2023-07-29T00:55:07;8.05;;;1.65;;
23470;SDS011;11908;50.806;4.424;2023-07-29T00:57:33;6.07;;;1.70;;
23470;SDS011;11908;50.806;4.424;2023-07-29T01:00:00;1.70;;;1.00;;
23470;SDS011;11908;50.806;4.424;2023-07-29T01:02:26;1.92;;;1.27;;
23470;SDS011;11908;50.806;4.424;2023-07-29T01:04:55;3.38;;;1.63;;
23470;SDS011;11908;50.806;4.424;2023-07-29T01:07:29;2.72;;;1.30;;
23470;SDS011;11908;50.806;4.424;2023-07-29T01:12:31;4.53;;;1.35;;
23470;SDS011;11908;50.806;4.424;2023-07-29T01:17:49;5.30;;;1.88;;
23470;SDS011;11908;50.806;4.424;2023-07-29T01:20:40;1.48;;;1.20;;
23470;SDS011;11908;50.806;4.424;2023-07-29T01:23:09;5.18;;;1.45;;
23470;SDS011;11908;50.806;4.424;2023-07-29T01:25:34;6.03;;;1.17;;
23470;SDS011;11908;50.806;4.424;2023-07-29T01:28:00;1.73;;;1.20;;
23470;SDS011;11908;50.806;4.424;2023-07-29T01:30:29;4.32;;;1.40;;
23470;SDS011;11908;50.806;4.424;2023-07-29T01:33:04;3.10;;;1.33;;
23470;SDS011;11908;50.806;4.424;2023-07-29T01:35:42;2.95;;;1.20;;
23470;SDS011;11908;50.806;4.424;2023-07-29T01:38:28;2.58;;;1.23;;
23470;SDS011;11908;50.806;4.424;2023-07-29T01:41:04;3.08;;;1.30;;
23470;SDS011;11908;50.806;4.424;2023-07-29T01:43:32;8.77;;;1.65;;
23470;SDS011;11908;50.806;4.424;2023-07-29T01:45:58;5.65;;;1.67;;
23470;SDS011;11908;50.806;4.424;2023-07-29T01:48:25;4.03;;;1.65;;
23470;SDS011;11908;50.806;4.424;2023-07-29T01:50:53;4.45;;;1.52;;
23470;SDS011;11908;50.806;4.424;2023-07-29T01:53:19;3.17;;;1.40;;
23470;SDS011;11908;50.806;4.424;2023-07-29T01:55:45;4.72;;;1.40;;
23470;SDS011;11908;50.806;4.424;2023-07-29T01:58:11;4.35;;;1.30;;
23470;SDS011;11908;50.806;4.424;2023-07-29T02:00:36;2.75;;;1.58;;
23470;SDS011;11908;50.806;4.424;2023-07-29T02:03:02;5.70;;;1.30;;
23470;SDS011;11908;50.806;4.424;2023-07-29T02:05:28;1.92;;;1.30;;
23470;SDS011;11908;50.806;4.424;2023-07-29T02:07:54;4.53;;;1.90;;
23470;SDS011;11908;50.806;4.424;2023-07-29T02:10:19;4.32;;;1.60;;
23470;SDS011;11908;50.806;4.424;2023-07-29T02:12:45;5.25;;;2.00;;
23470;SDS011;11908;50.806;4.424;2023-07-29T02:15:11;6.60;;;1.60;;
23470;SDS011;11908;50.806;4.424;2023-07-29T02:17:36;3.63;;;1.50;;
23470;SDS011;11908;50.806;4.424;2023-07-29T02:20:02;6.75;;;1.55;;
23470;SDS011;11908;50.806;4.424;2023-07-29T02:22:29;6.03;;;2.03;;
23470;SDS011;11908;50.806;4.424;2023-07-29T02:24:54;6.00;;;1.50;;
23470;SDS011;11908;50.806;4.424;2023-07-29T02:27:20;2.60;;;1.40;;
23470;SDS011;11908;50.806;4.424;2023-07-29T02:29:46;6.80;;;1.92;;
23470;SDS011;11908;50.806;4.424;2023-07-29T02:32:12;4.53;;;1.90;;
23470;SDS011;11908;50.806;4.424;2023-07-29T02:34:37;2.00;;;1.50;;
23470;SDS011;11908;50.806;4.424;2023-07-29T02:37:03;4.13;;;1.85;;
23470;SDS011;11908;50.806;4.424;2023-07-29T02:39:30;3.75;;;1.73;;
23470;SDS011;11908;50.806;4.424;2023-07-29T02:41:56;3.15;;;1.50;;
23470;SDS011;11908;50.806;4.424;2023-07-29T02:44:23;2.25;;;1.40;;
23470;SDS011;11908;50.806;4.424;2023-07-29T02:46:49;6.20;;;1.85;;
23470;SDS011;11908;50.806;4.424;2023-07-29T02:49:17;7.85;;;1.85;;
23470;SDS011;11908;50.806;4.424;2023-07-29T02:51:43;5.20;;;1.60;;
23470;SDS011;11908;50.806;4.424;2023-07-29T02:54:08;3.47;;;1.55;;
23470;SDS011;11908;50.806;4.424;2023-07-29T02:56:34;2.42;;;1.52;;
23470;SDS011;11908;50.806;4.424;2023-07-29T02:59:00;4.78;;;1.70;;
23470;SDS011;11908;50.806;4.424;2023-07-29T03:01:26;4.30;;;1.65;;
23470;SDS011;11908;50.806;4.424;2023-07-29T03:03:52;4.57;;;1.60;;
23470;SDS011;11908;50.806;4.424;2023-07-29T03:06:18;4.35;;;2.03;;
23470;SDS011;11908;50.806;4.424;2023-07-29T03:08:44;6.90;;;1.90;;
23470;SDS011;11908;50.806;4.424;2023-07-29T03:11:13;3.50;;;1.88;;
23470;SDS011;11908;50.806;4.424;2023-07-29T03:13:40;3.22;;;2.00;;
23470;SDS011;11908;50.806;4.424;2023-07-29T03:16:10;4.93;;;1.48;;
23470;SDS011;11908;50.806;4.424;2023-07-29T03:18:37;6.47;;;1.70;;
23470;SDS011;11908;50.806;4.424;2023-07-29T03:21:03;3.33;;;1.75;;
23470;SDS011;11908;50.806;4.424;2023-07-29T03:23:29;3.30;;;1.83;;
23470;SDS011;11908;50.806;4.424;2023-07-29T03:25:56;4.15;;;1.60;;
23470;SDS011;11908;50.806;4.424;2023-07-29T03:28:27;6.43;;;1.67;;
23470;SDS011;11908;50.806;4.424;2023-07-29T03:30:54;4.05;;;1.67;;
23470;SDS011;11908;50.806;4.424;2023-07-29T03:33:20;3.00;;;1.90;;
23470;SDS011;11908;50.806;4.424;2023-07-29T03:35:46;2.35;;;1.50;;
23470;SDS011;11908;50.806;4.424;2023-07-29T03:38:12;3.65;;;1.80;;
23470;SDS011;11908;50.806;4.424;2023-07-29T03:40:38;7.78;;;2.28;;
23470;SDS011;11908;50.806;4.424;2023-07-29T03:43:04;3.38;;;1.63;;
23470;SDS011;11908;50.806;4.424;2023-07-29T03:45:30;3.75;;;1.77;;
23470;SDS011;11908;50.806;4.424;2023-07-29T03:47:56;3.35;;;1.77;;
23470;SDS011;11908;50.806;4.424;2023-07-29T03:50:22;4.20;;;1.65;;
23470;SDS011;11908;50.806;4.424;2023-07-29T03:52:49;5.57;;;2.28;;
23470;SDS011;11908;50.806;4.424;2023-07-29T03:55:15;4.10;;;1.60;;
23470;SDS011;11908;50.806;4.424;2023-07-29T03:57:40;2.75;;;1.52;;
23470;SDS011;11908;50.806;4.424;2023-07-29T04:00:06;2.83;;;1.60;;
23470;SDS011;11908;50.806;4.424;2023-07-29T04:02:34;3.90;;;1.88;;
23470;SDS011;11908;50.806;4.424;2023-07-29T04:05:02;4.15;;;1.77;;
23470;SDS011;11908;50.806;4.424;2023-07-29T04:07:28;4.45;;;1.73;;
23470;SDS011;11908;50.806;4.424;2023-07-29T04:09:54;3.13;;;1.92;;
23470;SDS011;11908;50.806;4.424;2023-07-29T04:12:20;5.13;;;2.10;;
23470;SDS011;11908;50.806;4.424;2023-07-29T04:14:46;4.15;;;1.35;;
23470;SDS011;11908;50.806;4.424;2023-07-29T04:17:12;3.50;;;1.80;;
23470;SDS011;11908;50.806;4.424;2023-07-29T04:19:38;8.00;;;2.20;;
23470;SDS011;11908;50.806;4.424;2023-07-29T04:22:03;3.05;;;1.50;;
23470;SDS011;11908;50.806;4.424;2023-07-29T04:24:29;2.03;;;1.63;;
23470;SDS011;11908;50.806;4.424;2023-07-29T04:26:55;2.90;;;1.55;;
23470;SDS011;11908;50.806;4.424;2023-07-29T04:29:21;5.20;;;1.83;;
23470;SDS011;11908;50.806;4.424;2023-07-29T04:31:48;5.15;;;1.80;;
23470;SDS011;11908;50.806;4.424;2023-07-29T04:34:17;3.65;;;1.70;;
23470;SDS011;11908;50.806;4.424;2023-07-29T04:36:44;2.03;;;1.67;;
23470;SDS011;11908;50.806;4.424;2023-07-29T04:39:10;2.67;;;1.52;;
23470;SDS011;11908;50.806;4.424;2023-07-29T04:41:36;4.95;;;1.40;;
23470;SDS011;11908;50.806;4.424;2023-07-29T04:44:01;1.90;;;1.40;;
23470;SDS011;11908;50.806;4.424;2023-07-29T04:46:27;3.10;;;1.70;;
23470;SDS011;11908;50.806;4.424;2023-07-29T04:48:53;3.95;;;1.70;;
23470;SDS011;11908;50.806;4.424;2023-07-29T04:51:19;4.00;;;1.63;;
23470;SDS011;11908;50.806;4.424;2023-07-29T04:53:44;1.40;;;1.30;;
23470;SDS011;11908;50.806;4.424;2023-07-29T04:56:10;4.82;;;1.60;;
23470;SDS011;11908;50.806;4.424;2023-07-29T04:58:36;5.10;;;1.95;;
23470;SDS011;11908;50.806;4.424;2023-07-29T05:01:02;3.40;;;1.45;;
23470;SDS011;11908;50.806;4.424;2023-07-29T05:03:28;3.38;;;1.10;;
23470;SDS011;11908;50.806;4.424;2023-07-29T05:05:54;2.53;;;1.50;;
23470;SDS011;11908;50.806;4.424;2023-07-29T05:08:21;5.35;;;1.45;;
23470;SDS011;11908;50.806;4.424;2023-07-29T05:10:50;3.22;;;1.30;;
23470;SDS011;11908;50.806;4.424;2023-07-29T05:13:17;2.55;;;1.20;;
23470;SDS011;11908;50.806;4.424;2023-07-29T05:15:43;2.65;;;1.48;;
23470;SDS011;11908;50.806;4.424;2023-07-29T05:18:09;3.95;;;1.40;;
23470;SDS011;11908;50.806;4.424;2023-07-29T05:20:35;4.78;;;1.38;;
23470;SDS011;11908;50.806;4.424;2023-07-29T05:23:01;3.10;;;1.27;;
23470;SDS011;11908;50.806;4.424;2023-07-29T05:25:27;4.75;;;1.13;;
23470;SDS011;11908;50.806;4.424;2023-07-29T05:27:52;1.92;;;0.98;;
23470;SDS011;11908;50.806;4.424;2023-07-29T05:30:18;4.05;;;1.02;;
23470;SDS011;11908;50.806;4.424;2023-07-29T05:32:44;3.80;;;1.15;;
23470;SDS011;11908;50.806;4.424;2023-07-29T05:35:10;3.08;;;0.95;;
23470;SDS011;11908;50.806;4.424;2023-07-29T05:37:38;2.85;;;1.00;;
23470;SDS011;11908;50.806;4.424;2023-07-29T05:40:07;2.00;;;0.60;;
23470;SDS011;11908;50.806;4.424;2023-07-29T05:42:33;4.75;;;1.27;;
23470;SDS011;11908;50.806;4.424;2023-07-29T05:45:00;2.05;;;1.02;;
23470;SDS011;11908;50.806;4.424;2023-07-29T05:47:26;5.75;;;0.70;;
23470;SDS011;11908;50.806;4.424;2023-07-29T05:49:52;2.17;;;1.00;;
23470;SDS011;11908;50.806;4.424;2023-07-29T05:52:17;3.63;;;1.55;;
23470;SDS011;11908;50.806;4.424;2023-07-29T05:54:43;1.55;;;0.75;;
23470;SDS011;11908;50.806;4.424;2023-07-29T05:57:10;3.17;;;0.77;;
23470;SDS011;11908;50.806;4.424;2023-07-29T05:59:38;1.98;;;0.80;;
23470;SDS011;11908;50.806;4.424;2023-07-29T06:02:04;0.98;;;0.90;;
23470;SDS011;11908;50.806;4.424;2023-07-29T06:04:30;1.10;;;0.80;;
23470;SDS011;11908;50.806;4.424;2023-07-29T06:06:55;1.80;;;0.82;;
23470;SDS011;11908;50.806;4.424;2023-07-29T06:09:22;1.73;;;0.95;;
23470;SDS011;11908;50.806;4.424;2023-07-29T06:11:47;1.98;;;1.17;;
23470;SDS011;11908;50.806;4.424;2023-07-29T06:14:13;7.43;;;1.10;;
23470;SDS011;11908;50.806;4.424;2023-07-29T06:16:39;4.22;;;1.08;;
23470;SDS011;11908;50.806;4.424;2023-07-29T06:19:04;1.15;;;0.80;;
23470;SDS011;11908;50.806;4.424;2023-07-29T06:21:30;2.97;;;1.13;;
23470;SDS011;11908;50.806;4.424;2023-07-29T06:23:56;1.55;;;1.20;;
23470;SDS011;11908;50.806;4.424;2023-07-29T06:26:22;2.80;;;0.93;;
23470;SDS011;11908;50.806;4.424;2023-07-29T06:28:47;2.70;;;0.98;;
23470;SDS011;11908;50.806;4.424;2023-07-29T06:31:13;2.65;;;0.70;;
23470;SDS011;11908;50.806;4.424;2023-07-29T06:33:39;4.13;;;0.80;;
23470;SDS011;11908;50.806;4.424;2023-07-29T06:36:05;2.22;;;1.00;;
23470;SDS011;11908;50.806;4.424;2023-07-29T06:38:31;1.27;;;0.70;;
23470;SDS011;11908;50.806;4.424;2023-07-29T06:40:57;1.65;;;0.90;;
23470;SDS011;11908;50.806;4.424;2023-07-29T06:43:22;2.10;;;1.10;;
23470;SDS011;11908;50.806;4.424;2023-07-29T06:45:48;2.15;;;0.70;;
23470;SDS011;11908;50.806;4.424;2023-07-29T06:48:14;1.55;;;0.90;;
23470;SDS011;11908;50.806;4.424;2023-07-29T06:50:39;2.97;;;0.75;;
23470;SDS011;11908;50.806;4.424;2023-07-29T06:53:05;1.58;;;0.90;;
23470;SDS011;11908;50.806;4.424;2023-07-29T06:55:31;1.77;;;0.82;;
23470;SDS011;11908;50.806;4.424;2023-07-29T06:57:57;1.42;;;0.80;;
23470;SDS011;11908;50.806;4.424;2023-07-29T07:00:22;3.65;;;0.90;;
23470;SDS011;11908;50.806;4.424;2023-07-29T07:02:48;2.47;;;1.10;;
23470;SDS011;11908;50.806;4.424;2023-07-29T07:05:14;1.85;;;1.20;;
23470;SDS011;11908;50.806;4.424;2023-07-29T07:07:40;1.30;;;1.00;;
23470;SDS011;11908;50.806;4.424;2023-07-29T07:10:06;1.35;;;1.10;;
23470;SDS011;11908;50.806;4.424;2023-07-29T07:12:32;1.65;;;0.88;;
23470;SDS011;11908;50.806;4.424;2023-07-29T07:14:57;5.20;;;1.30;;
23470;SDS011;11908;50.806;4.424;2023-07-29T07:17:23;2.63;;;1.00;;
23470;SDS011;11908;50.806;4.424;2023-07-29T07:19:48;1.20;;;1.00;;
23470;SDS011;11908;50.806;4.424;2023-07-29T07:22:15;2.05;;;0.98;;
23470;SDS011;11908;50.806;4.424;2023-07-29T07:24:41;3.78;;;0.80;;
23470;SDS011;11908;50.806;4.424;2023-07-29T07:27:06;2.10;;;1.00;;
23470;SDS011;11908;50.806;4.424;2023-07-29T07:29:32;2.17;;;0.90;;
23470;SDS011;11908;50.806;4.424;2023-07-29T07:31:58;4.25;;;1.10;;
23470;SDS011;11908;50.806;4.424;2023-07-29T07:34:24;2.05;;;1.17;;
23470;SDS011;11908;50.806;4.424;2023-07-29T07:36:50;1.17;;;0.77;;
23470;SDS011;11908;50.806;4.424;2023-07-29T07:39:16;1.10;;;1.00;;
23470;SDS011;11908;50.806;4.424;2023-07-29T07:41:41;2.22;;;0.90;;
23470;SDS011;11908;50.806;4.424;2023-07-29T07:44:08;3.65;;;1.00;;
23470;SDS011;11908;50.806;4.424;2023-07-29T07:46:34;1.23;;;0.90;;
23470;SDS011;11908;50.806;4.424;2023-07-29T07:48:59;3.13;;;0.98;;
23470;SDS011;11908;50.806;4.424;2023-07-29T07:51:25;1.05;;;0.75;;
23470;SDS011;11908;50.806;4.424;2023-07-29T07:53:51;3.03;;;0.75;;
23470;SDS011;11908;50.806;4.424;2023-07-29T07:56:16;2.72;;;1.10;;
23470;SDS011;11908;50.806;4.424;2023-07-29T07:58:42;1.88;;;0.80;;
23470;SDS011;11908;50.806;4.424;2023-07-29T08:01:08;4.90;;;1.00;;
23470;SDS011;11908;50.806;4.424;2023-07-29T08:03:34;2.05;;;0.90;;
23470;SDS011;11908;50.806;4.424;2023-07-29T08:06:00;2.33;;;0.80;;
23470;SDS011;11908;50.806;4.424;2023-07-29T08:08:27;2.25;;;0.90;;
23470;SDS011;11908;50.806;4.424;2023-07-29T08:10:53;1.75;;;0.80;;
23470;SDS011;11908;50.806;4.424;2023-07-29T08:13:19;1.35;;;0.80;;
23470;SDS011;11908;50.806;4.424;2023-07-29T08:15:46;2.25;;;0.73;;
23470;SDS011;11908;50.806;4.424;2023-07-29T08:18:13;2.05;;;0.70;;
23470;SDS011;11908;50.806;4.424;2023-07-29T08:20:38;2.67;;;0.90;;
23470;SDS011;11908;50.806;4.424;2023-07-29T08:23:05;2.47;;;0.70;;
23470;SDS011;11908;50.806;4.424;2023-07-29T08:25:31;1.83;;;0.70;;
23470;SDS011;11908;50.806;4.424;2023-07-29T08:27:57;4.25;;;1.10;;
23470;SDS011;11908;50.806;4.424;2023-07-29T08:30:22;4.68;;;0.98;;
23470;SDS011;11908;50.806;4.424;2023-07-29T08:32:48;1.02;;;0.80;;
23470;SDS011;11908;50.806;4.424;2023-07-29T08:35:13;2.13;;;0.93;;
23470;SDS011;11908;50.806;4.424;2023-07-29T08:37:39;1.67;;;0.70;;
23470;SDS011;11908;50.806;4.424;2023-07-29T08:40:06;2.35;;;0.90;;
23470;SDS011;11908;50.806;4.424;2023-07-29T08:42:32;0.93;;;0.80;;
23470;SDS011;11908;50.806;4.424;2023-07-29T08:45:06;1.98;;;0.70;;
23470;SDS011;11908;50.806;4.424;2023-07-29T08:47:36;1.40;;;0.77;;
23470;SDS011;11908;50.806;4.424;2023-07-29T08:50:02;1.88;;;0.90;;
23470;SDS011;11908;50.806;4.424;2023-07-29T08:52:29;2.38;;;0.82;;
23470;SDS011;11908;50.806;4.424;2023-07-29T08:54:55;1.23;;;0.82;;
23470;SDS011;11908;50.806;4.424;2023-07-29T08:57:21;1.02;;;0.70;;
23470;SDS011;11908;50.806;4.424;2023-07-29T08:59:48;0.90;;;0.55;;
23470;SDS011;11908;50.806;4.424;2023-07-29T09:02:14;1.27;;;0.70;;
23470;SDS011;11908;50.806;4.424;2023-07-29T09:04:39;0.93;;;0.68;;
23470;SDS011;11908;50.806;4.424;2023-07-29T09:07:05;6.35;;;1.08;;
23470;SDS011;11908;50.806;4.424;2023-07-29T09:09:32;1.20;;;0.85;;
23470;SDS011;11908;50.806;4.424;2023-07-29T09:11:58;2.20;;;0.75;;
23470;SDS011;11908;50.806;4.424;2023-07-29T09:14:23;4.25;;;1.00;;
23470;SDS011;11908;50.806;4.424;2023-07-29T09:16:49;2.45;;;0.90;;
23470;SDS011;11908;50.806;4.424;2023-07-29T09:19:15;0.88;;;0.80;;
23470;SDS011;11908;50.806;4.424;2023-07-29T09:21:41;1.58;;;0.90;;
23470;SDS011;11908;50.806;4.424;2023-07-29T09:24:07;1.77;;;1.10;;
23470;SDS011;11908;50.806;4.424;2023-07-29T09:26:34;1.08;;;0.80;;
23470;SDS011;11908;50.806;4.424;2023-07-29T09:29:00;1.20;;;1.10;;
23470;SDS011;11908;50.806;4.424;2023-07-29T09:31:26;3.17;;;1.00;;
23470;SDS011;11908;50.806;4.424;2023-07-29T09:33:57;1.98;;;0.93;;
23470;SDS011;11908;50.806;4.424;2023-07-29T09:36:23;1.90;;;1.00;;
23470;SDS011;11908;50.806;4.424;2023-07-29T09:38:53;1.45;;;0.85;;
23470;SDS011;11908;50.806;4.424;2023-07-29T09:41:21;5.65;;;1.60;;
23470;SDS011;11908;50.806;4.424;2023-07-29T09:43:57;1.85;;;0.90;;
23470;SDS011;11908;50.806;4.424;2023-07-29T09:46:25;1.33;;;1.00;;
23470;SDS011;11908;50.806;4.424;2023-07-29T09:48:56;1.58;;;0.98;;
23470;SDS011;11908;50.806;4.424;2023-07-29T09:51:22;1.90;;;0.93;;
23470;SDS011;11908;50.806;4.424;2023-07-29T09:53:50;1.60;;;1.00;;
23470;SDS011;11908;50.806;4.424;2023-07-29T09:56:16;5.35;;;1.50;;
23470;SDS011;11908;50.806;4.424;2023-07-29T09:58:43;1.35;;;0.90;;
23470;SDS011;11908;50.806;4.424;2023-07-29T10:01:10;2.45;;;1.25;;
23470;SDS011;11908;50.806;4.424;2023-07-29T10:03:36;1.60;;;0.95;;
23470;SDS011;11908;50.806;4.424;2023-07-29T10:06:03;2.80;;;0.98;;
23470;SDS011;11908;50.806;4.424;2023-07-29T10:08:30;3.00;;;0.90;;
23470;SDS011;11908;50.806;4.424;2023-07-29T10:11:00;3.08;;;0.98;;
23470;SDS011;11908;50.806;4.424;2023-07-29T10:13:27;3.10;;;1.05;;
23470;SDS011;11908;50.806;4.424;2023-07-29T10:15:53;2.47;;;1.00;;
23470;SDS011;11908;50.806;4.424;2023-07-29T10:18:19;3.90;;;1.15;;
23470;SDS011;11908;50.806;4.424;2023-07-29T10:20:47;2.88;;;0.95;;
23470;SDS011;11908;50.806;4.424;2023-07-29T10:23:15;5.88;;;1.27;;
23470;SDS011;11908;50.806;4.424;2023-07-29T10:25:45;3.78;;;1.02;;
23470;SDS011;11908;50.806;4.424;2023-07-29T10:28:14;2.03;;;1.30;;
23470;SDS011;11908;50.806;4.424;2023-07-29T10:30:42;2.63;;;1.30;;
23470;SDS011;11908;50.806;4.424;2023-07-29T10:33:09;2.80;;;1.50;;
23470;SDS011;11908;50.806;4.424;2023-07-29T10:35:35;4.05;;;1.58;;
23470;SDS011;11908;50.806;4.424;2023-07-29T10:38:02;3.78;;;1.85;;
23470;SDS011;11908;50.806;4.424;2023-07-29T10:40:51;2.70;;;1.40;;
23470;SDS011;11908;50.806;4.424;2023-07-29T10:43:28;6.15;;;1.40;;
23470;SDS011;11908;50.806;4.424;2023-07-29T10:45:57;2.60;;;1.50;;
23470;SDS011;11908;50.806;4.424;2023-07-29T10:48:40;2.45;;;1.10;;
23470;SDS011;11908;50.806;4.424;2023-07-29T10:53:55;3.28;;;1.05;;
23470;SDS011;11908;50.806;4.424;2023-07-29T10:56:29;1.30;;;1.20;;
23470;SDS011;11908;50.806;4.424;2023-07-29T10:59:03;5.53;;;1.30;;
23470;SDS011;11908;50.806;4.424;2023-07-29T11:01:56;2.67;;;1.20;;
23470;SDS011;11908;50.806;4.424;2023-07-29T11:04:26;2.08;;;1.35;;
23470;SDS011;11908;50.806;4.424;2023-07-29T11:15:13;2.90;;;1.55;;
23470;SDS011;11908;50.806;4.424;2023-07-29T11:20:10;3.85;;;1.50;;
23470;SDS011;11908;50.806;4.424;2023-07-29T11:22:37;2.40;;;1.70;;
23470;SDS011;11908;50.806;4.424;2023-07-29T11:25:03;3.20;;;1.48;;
23470;SDS011;11908;50.806;4.424;2023-07-29T11:27:30;3.83;;;1.65;;
23470;SDS011;11908;50.806;4.424;2023-07-29T11:29:56;5.13;;;1.60;;
23470;SDS011;11908;50.806;4.424;2023-07-29T11:32:23;4.50;;;1.88;;
23470;SDS011;11908;50.806;4.424;2023-07-29T11:34:50;2.40;;;1.52;;
23470;SDS011;11908;50.806;4.424;2023-07-29T11:37:16;2.50;;;1.98;;
23470;SDS011;11908;50.806;4.424;2023-07-29T11:39:42;6.45;;;1.73;;
23470;SDS011;11908;50.806;4.424;2023-07-29T11:42:12;3.47;;;1.63;;
23470;SDS011;11908;50.806;4.424;2023-07-29T11:44:39;2.90;;;1.30;;
23470;SDS011;11908;50.806;4.424;2023-07-29T11:47:06;3.47;;;1.20;;
23470;SDS011;11908;50.806;4.424;2023-07-29T11:49:35;2.72;;;1.45;;
23470;SDS011;11908;50.806;4.424;2023-07-29T11:52:05;2.72;;;1.50;;
23470;SDS011;11908;50.806;4.424;2023-07-29T11:54:38;1.92;;;1.52;;
23470;SDS011;11908;50.806;4.424;2023-07-29T11:57:07;1.27;;;1.17;;
23470;SDS011;11908;50.806;4.424;2023-07-29T11:59:34;3.03;;;1.35;;
23470;SDS011;11908;50.806;4.424;2023-07-29T12:02:01;2.55;;;0.88;;
23470;SDS011;11908;50.806;4.424;2023-07-29T12:04:30;1.27;;;1.13;;
23470;SDS011;11908;50.806;4.424;2023-07-29T12:06:56;3.75;;;1.30;;
23470;SDS011;11908;50.806;4.424;2023-07-29T12:09:22;3.95;;;1.23;;
23470;SDS011;11908;50.806;4.424;2023-07-29T12:11:48;1.30;;;1.20;;
23470;SDS011;11908;50.806;4.424;2023-07-29T12:14:16;1.63;;;0.90;;
23470;SDS011;11908;50.806;4.424;2023-07-29T12:16:42;2.53;;;1.70;;
23470;SDS011;11908;50.806;4.424;2023-07-29T12:19:11;3.25;;;1.58;;
23470;SDS011;11908;50.806;4.424;2023-07-29T12:21:38;4.07;;;1.60;;
23470;SDS011;11908;50.806;4.424;2023-07-29T12:24:04;4.25;;;1.90;;
23470;SDS011;11908;50.806;4.424;2023-07-29T12:26:30;3.20;;;1.55;;
23470;SDS011;11908;50.806;4.424;2023-07-29T12:28:55;2.03;;;1.80;;
23470;SDS011;11908;50.806;4.424;2023-07-29T12:31:33;2.75;;;2.05;;
23470;SDS011;11908;50.806;4.424;2023-07-29T12:34:02;5.32;;;2.90;;
23470;SDS011;11908;50.806;4.424;2023-07-29T12:36:44;6.47;;;2.08;;
23470;SDS011;11908;50.806;4.424;2023-07-29T12:41:53;1.83;;;1.73;;
23470;SDS011;11908;50.806;4.424;2023-07-29T12:44:20;3.92;;;2.00;;
23470;SDS011;11908;50.806;4.424;2023-07-29T12:46:48;2.70;;;1.80;;
23470;SDS011;11908;50.806;4.424;2023-07-29T12:49:14;2.33;;;2.03;;
23470;SDS011;11908;50.806;4.424;2023-07-29T12:51:40;2.05;;;1.90;;
23470;SDS011;11908;50.806;4.424;2023-07-29T12:54:06;3.40;;;2.65;;
23470;SDS011;11908;50.806;4.424;2023-07-29T12:56:32;2.45;;;2.22;;
23470;SDS011;11908;50.806;4.424;2023-07-29T12:58:58;2.28;;;1.90;;
23470;SDS011;11908;50.806;4.424;2023-07-29T13:01:25;2.92;;;2.30;;
23470;SDS011;11908;50.806;4.424;2023-07-29T13:03:51;2.67;;;2.08;;
23470;SDS011;11908;50.806;4.424;2023-07-29T13:06:16;2.42;;;1.80;;
23470;SDS011;11908;50.806;4.424;2023-07-29T13:08:42;2.40;;;1.90;;
23470;SDS011;11908;50.806;4.424;2023-07-29T13:11:09;2.45;;;1.70;;
23470;SDS011;11908;50.806;4.424;2023-07-29T13:13:35;2.65;;;1.60;;
23470;SDS011;11908;50.806;4.424;2023-07-29T13:16:00;1.80;;;1.50;;
23470;SDS011;11908;50.806;4.424;2023-07-29T13:18:26;3.45;;;1.55;;
23470;SDS011;11908;50.806;4.424;2023-07-29T13:20:52;1.67;;;1.58;;
23470;SDS011;11908;50.806;4.424;2023-07-29T13:23:18;2.17;;;1.73;;
23470;SDS011;11908;50.806;4.424;2023-07-29T13:25:44;1.80;;;1.70;;
23470;SDS011;11908;50.806;4.424;2023-07-29T13:28:09;2.58;;;1.83;;
23470;SDS011;11908;50.806;4.424;2023-07-29T13:30:36;4.43;;;1.80;;
23470;SDS011;11908;50.806;4.424;2023-07-29T13:33:01;3.90;;;1.55;;
23470;SDS011;11908;50.806;4.424;2023-07-29T13:35:28;2.08;;;1.50;;
23470;SDS011;11908;50.806;4.424;2023-07-29T13:37:55;1.90;;;1.80;;
23470;SDS011;11908;50.806;4.424;2023-07-29T13:40:21;1.60;;;1.50;;
23470;SDS011;11908;50.806;4.424;2023-07-29T13:42:46;2.97;;;1.35;;
23470;SDS011;11908;50.806;4.424;2023-07-29T13:45:12;1.95;;;1.38;;
23470;SDS011;11908;50.806;4.424;2023-07-29T13:47:38;2.28;;;2.08;;
23470;SDS011;11908;50.806;4.424;2023-07-29T13:50:04;1.77;;;1.30;;
23470;SDS011;11908;50.806;4.424;2023-07-29T13:52:32;2.03;;;1.15;;
23470;SDS011;11908;50.806;4.424;2023-07-29T13:54:58;0.93;;;0.77;;
23470;SDS011;11908;50.806;4.424;2023-07-29T13:57:24;2.20;;;0.80;;
23470;SDS011;11908;50.806;4.424;2023-07-29T13:59:49;1.20;;;1.10;;
23470;SDS011;11908;50.806;4.424;2023-07-29T14:02:15;1.10;;;1.00;;
23470;SDS011;11908;50.806;4.424;2023-07-29T14:04:41;1.08;;;0.90;;
23470;SDS011;11908;50.806;4.424;2023-07-29T14:07:06;1.35;;;1.00;;
23470;SDS011;11908;50.806;4.424;2023-07-29T14:09:32;1.33;;;1.00;;
23470;SDS011;11908;50.806;4.424;2023-07-29T14:11:58;0.93;;;0.80;;
23470;SDS011;11908;50.806;4.424;2023-07-29T14:14:24;2.90;;;0.82;;
23470;SDS011;11908;50.806;4.424;2023-07-29T14:16:49;0.80;;;0.80;;
23470;SDS011;11908;50.806;4.424;2023-07-29T14:19:15;1.27;;;0.90;;
23470;SDS011;11908;50.806;4.424;2023-07-29T14:21:41;1.10;;;0.82;;
23470;SDS011;11908;50.806;4.424;2023-07-29T14:24:06;1.63;;;0.93;;
23470;SDS011;11908;50.806;4.424;2023-07-29T14:26:32;1.48;;;0.70;;
23470;SDS011;11908;50.806;4.424;2023-07-29T14:28:58;1.33;;;0.80;;
23470;SDS011;11908;50.806;4.424;2023-07-29T14:31:23;1.58;;;0.90;;
23470;SDS011;11908;50.806;4.424;2023-07-29T14:33:49;0.80;;;0.80;;
23470;SDS011;11908;50.806;4.424;2023-07-29T14:36:15;3.08;;;1.05;;
23470;SDS011;11908;50.806;4.424;2023-07-29T14:38:41;2.33;;;1.05;;
23470;SDS011;11908;50.806;4.424;2023-07-29T14:41:07;1.70;;;1.08;;
23470;SDS011;11908;50.806;4.424;2023-07-29T14:43:33;2.15;;;0.95;;
23470;SDS011;11908;50.806;4.424;2023-07-29T14:45:59;1.10;;;1.00;;
23470;SDS011;11908;50.806;4.424;2023-07-29T14:48:24;1.10;;;0.80;;
23470;SDS011;11908;50.806;4.424;2023-07-29T14:50:50;1.15;;;0.93;;
23470;SDS011;11908;50.806;4.424;2023-07-29T14:53:16;1.27;;;0.82;;
23470;SDS011;11908;50.806;4.424;2023-07-29T14:55:42;1.30;;;1.20;;
23470;SDS011;11908;50.806;4.424;2023-07-29T14:58:07;1.50;;;1.00;;
23470;SDS011;11908;50.806;4.424;2023-07-29T15:00:33;3.88;;;1.20;;
23470;SDS011;11908;50.806;4.424;2023-07-29T15:02:59;3.22;;;0.85;;
23470;SDS011;11908;50.806;4.424;2023-07-29T15:05:25;1.30;;;1.10;;
23470;SDS011;11908;50.806;4.424;2023-07-29T15:07:50;1.38;;;1.00;;